Terminal Aerodrome Forecast
Issued by NWS Chicago, IL

Home | Current Version | Previous Version | Graphics & Text | Print | Product List | Glossary On
Versions: 1 2 3 4 5 6 7 8 9 10 11 12 13 14 15 16 17 18 19 20 21 22 23 24 25 26 27 28 29 30 31 32 33 34 35 36
000
FTUS43 KLOT 240300 AAA
TAFRFD
TAF AMD
KRFD 240303Z 2403/2424 21009KT P6SM SKC
     FM240800 22014G20KT P6SM BKN150 WS015/25050KT
     FM241200 23017G25KT P6SM OVC035 PROB30 2415/2417 2SM -SHSN
     FM242000 29015G25KT P6SM BKN035=

USA.gov is the U.S. government's official web portal to all federal, state and local government web resources and services.